Time;durP1;ratioP1;P1;durP2;ratioP2;P2;SDS_P1;SDS_P2;PMS_P1;PMS_P2;Temp;Humidity;BMP_temperature;BMP_pressure;BME280_temperature;BME280_humidity;BME280_pressure;Samples;Min_cycle;Max_cycle;Signal;HPM_P1;HPM_P2
2023/11/22 00:00:46;;;;;;;;;;;;;;;9.75;56.41;101459.66;4976703;27;115481;-66
2023/11/22 00:03:12;;;;;;;;;;;;;;;9.73;56.44;101453.66;4974601;27;98654;-67
2023/11/22 00:05:38;;;;;;;;;;;;;;;9.72;56.41;101449.34;4968172;27;98236;-63
2023/11/22 00:08:04;;;;;;;;;;;;;;;9.72;56.81;101443.97;4958539;27;99611;-62
2023/11/22 00:10:30;;;;;;;;;;;;;;;9.69;56.38;101447.13;4963494;27;119137;-63
2023/11/22 00:12:58;;;;;;;;;;;;;;;9.69;56.23;101450.63;4981502;27;105686;-66
2023/11/22 00:15:25;;;;;;;;;;;;;;;9.68;56.30;101453.56;4966918;27;98341;-67
2023/11/22 00:17:52;;;;;;;;;;;;;;;9.68;56.46;101443.63;4978448;27;98459;-62
2023/11/22 00:20:18;;;;;;;;;;;;;;;9.67;56.57;101443.84;4966710;27;100311;-62
2023/11/22 00:22:45;;;;;;;;;;;;;;;9.66;56.82;101439.50;4962917;27;98159;-63
2023/11/22 00:25:13;;;;;;;;;;;;;;;9.66;56.65;101453.78;4963364;27;98144;-66
2023/11/22 00:27:39;;;;;;;;;;;;;;;9.66;56.89;101451.09;4978985;27;98329;-62
2023/11/22 00:30:05;;;;;;;;;;;;;;;9.65;56.90;101444.09;4966219;27;98498;-63
2023/11/22 00:32:31;;;;;;;;;;;;;;;9.65;56.42;101441.38;4975721;27;98953;-66
2023/11/22 00:34:57;;;;;;;;;;;;;;;9.65;56.45;101446.78;4958953;27;107794;-62
2023/11/22 00:37:23;;;;;;;;;;;;;;;9.66;56.82;101455.66;4978760;27;127494;-62
2023/11/22 00:39:49;;;;;;;;;;;;;;;9.65;56.17;101445.97;4966828;27;98168;-62
2023/11/22 00:42:19;;;;;;;;;;;;;;;9.64;56.12;101452.41;4976962;27;98558;-66
2023/11/22 00:44:46;;;;;;;;;;;;;;;9.63;56.48;101456.97;4965859;27;98688;-62
2023/11/22 00:47:12;;;;;;;;;;;;;;;9.63;56.28;101461.53;4959117;27;98145;-66
2023/11/22 00:49:38;;;;;;;;;;;;;;;9.62;56.35;101460.69;4975483;27;115804;-62
2023/11/22 00:52:06;;;;;;;;;;;;;;;9.61;56.76;101466.34;4961676;27;98515;-62
2023/11/22 00:54:32;;;;;;;;;;;;;;;9.61;56.87;101475.22;4980974;27;99504;-66
2023/11/22 00:56:59;;;;;;;;;;;;;;;9.61;56.56;101480.59;4983585;27;128274;-66
2023/11/22 00:59:26;;;;;;;;;;;;;;;9.62;56.78;101484.13;4982657;27;98595;-61
2023/11/22 01:01:52;;;;;;;;;;;;;;;9.61;56.26;101487.88;4968723;27;98221;-66
2023/11/22 01:04:18;;;;;;;;;;;;;;;9.60;56.24;101487.06;4961262;27;98292;-62
2023/11/22 01:06:44;;;;;;;;;;;;;;;9.61;56.61;101485.19;4966338;27;98429;-66
2023/11/22 01:09:13;;;;;;;;;;;;;;;9.60;56.66;101492.44;4963889;27;99303;-66
2023/11/22 01:11:39;;;;;;;;;;;;;;;9.58;56.23;101497.22;4980252;27;98559;-66
2023/11/22 01:14:05;;;;;;;;;;;;;;;9.60;56.47;101505.91;4965739;27;98178;-62
2023/11/22 01:16:32;;;;;;;;;;;;;;;9.58;56.72;101511.50;4958814;27;98991;-65
2023/11/22 01:18:58;;;;;;;;;;;;;;;9.59;56.58;101504.28;4945905;27;97935;-62
2023/11/22 01:21:25;;;;;;;;;;;;;;;9.58;56.27;101524.16;4975375;27;97950;-62
2023/11/22 01:23:51;;;;;;;;;;;;;;;9.57;56.29;101517.13;4948882;27;98657;-66
2023/11/22 01:26:17;;;;;;;;;;;;;;;9.58;56.25;101521.44;4960113;27;98330;-62
2023/11/22 01:28:44;;;;;;;;;;;;;;;9.57;56.37;101533.28;4945802;27;99387;-62
2023/11/22 01:31:12;;;;;;;;;;;;;;;9.56;56.77;101545.09;4977241;27;99414;-66
2023/11/22 01:33:39;;;;;;;;;;;;;;;9.56;56.27;101537.03;4958758;27;98384;-66
2023/11/22 01:36:05;;;;;;;;;;;;;;;9.55;56.60;101541.59;4947669;27;98475;-66
2023/11/22 01:38:31;;;;;;;;;;;;;;;9.55;56.77;101540.78;4958543;27;113498;-66
2023/11/22 01:40:58;;;;;;;;;;;;;;;9.55;56.20;101543.47;4944988;27;98219;-62
2023/11/22 01:43:26;;;;;;;;;;;;;;;9.54;56.29;101542.63;4946113;27;98050;-66
2023/11/22 01:45:55;;;;;;;;;;;;;;;9.54;56.27;101541.81;4938767;27;98112;-66
2023/11/22 01:48:21;;;;;;;;;;;;;;;9.53;56.46;101532.94;4944443;27;99227;-62
2023/11/22 01:50:47;;;;;;;;;;;;;;;9.54;56.42;101539.13;4959810;27;98782;-62
2023/11/22 01:53:13;;;;;;;;;;;;;;;9.52;56.58;101536.69;4947416;27;102932;-65
2023/11/22 01:55:40;;;;;;;;;;;;;;;9.52;56.15;101542.06;4967758;27;98374;-61
2023/11/22 01:58:06;;;;;;;;;;;;;;;9.53;56.33;101538.31;4942299;27;123491;-65
2023/11/22 02:00:36;;;;;;;;;;;;;;;9.53;56.39;101537.50;4948326;27;98273;-61
2023/11/22 02:03:03;;;;;;;;;;;;;;;9.52;56.38;101525.09;4947683;27;98151;-66
2023/11/22 02:05:29;;;;;;;;;;;;;;;9.51;56.16;101529.66;4972642;27;98065;-61
2023/11/22 02:07:55;;;;;;;;;;;;;;;9.53;56.81;101534.81;4943208;28;123271;-62
2023/11/22 02:10:23;;;;;;;;;;;;;;;9.52;56.13;101534.00;4953740;27;98064;-66
2023/11/22 02:12:50;;;;;;;;;;;;;;;9.52;56.78;101544.75;4948006;27;97844;-66
2023/11/22 02:15:16;;;;;;;;;;;;;;;9.52;56.40;101541.25;4961050;27;98051;-66
2023/11/22 02:17:42;;;;;;;;;;;;;;;9.50;56.02;101541.47;4965709;27;109572;-61
2023/11/22 02:20:10;;;;;;;;;;;;;;;9.50;56.65;101546.03;4966546;27;99468;-62
2023/11/22 02:22:44;;;;;;;;;;;;;;;9.50;56.71;101554.09;4973100;27;98225;-66
2023/11/22 02:25:10;;;;;;;;;;;;;;;9.50;56.14;101560.31;4977776;27;104192;-66
2023/11/22 02:27:37;;;;;;;;;;;;;;;9.49;56.66;101565.94;4973692;27;98474;-66
2023/11/22 02:30:05;;;;;;;;;;;;;;;9.49;56.09;101561.38;4961286;27;98429;-66
2023/11/22 02:32:33;;;;;;;;;;;;;;;9.49;56.36;101558.69;4967517;27;98335;-65
2023/11/22 02:34:59;;;;;;;;;;;;;;;9.49;56.19;101564.06;4979878;27;97927;-62
2023/11/22 02:37:25;;;;;;;;;;;;;;;9.50;56.71;101567.56;4968593;27;98247;-65
2023/11/22 02:40:21;;;;;;;;;;;;;;;9.49;56.52;101574.81;4962139;27;99197;-62
2023/11/22 02:42:48;;;;;;;;;;;;;;;9.49;56.72;101566.75;4969800;27;103229;-61
2023/11/22 02:45:17;;;;;;;;;;;;;;;9.49;56.58;101560.56;4982606;27;98581;-66
2023/11/22 02:47:44;;;;;;;;;;;;;;;9.48;56.11;101564.31;4963044;27;100050;-62
2023/11/22 02:50:11;;;;;;;;;;;;;;;9.49;56.41;101569.44;4976182;27;97723;-66
2023/11/22 02:52:37;;;;;;;;;;;;;;;9.49;56.12;101560.56;4971286;27;98059;-62
2023/11/22 02:55:04;;;;;;;;;;;;;;;9.47;56.12;101563.50;4970453;27;98000;-65
2023/11/22 02:57:33;;;;;;;;;;;;;;;9.48;56.11;101569.69;4977483;27;98653;-66
2023/11/22 02:59:59;;;;;;;;;;;;;;;9.47;56.64;101571.56;4979341;27;97941;-62
2023/11/22 03:02:26;;;;;;;;;;;;;;;9.47;56.76;101574.25;4978529;27;97772;-66
2023/11/22 03:04:52;;;;;;;;;;;;;;;9.47;56.22;101578.78;4965667;27;98053;-66
2023/11/22 03:07:18;;;;;;;;;;;;;;;9.47;56.75;101592.25;4977378;27;98618;-66
2023/11/22 03:09:45;;;;;;;;;;;;;;;9.46;56.34;101599.50;4961401;27;98482;-62
2023/11/22 03:15:34;;;;;;;;;;;;;;;9.45;56.33;101597.88;5016720;27;98619;-65
2023/11/22 03:18:01;;;;;;;;;;;;;;;9.44;56.05;101608.88;4996641;27;98354;-66
2023/11/22 03:20:27;;;;;;;;;;;;;;;9.41;56.45;101615.53;4973165;27;98940;-62
2023/11/22 03:22:55;;;;;;;;;;;;;;;9.39;56.04;101611.44;4968393;27;115962;-62
2023/11/22 03:25:21;;;;;;;;;;;;;;;9.37;56.14;101617.06;4966887;27;99389;-65
2023/11/22 03:27:47;;;;;;;;;;;;;;;9.35;56.58;101616.44;4984388;27;98295;-61
2023/11/22 03:30:15;;;;;;;;;;;;;;;9.34;56.20;101628.28;4967726;27;98086;-61
2023/11/22 03:32:41;;;;;;;;;;;;;;;9.32;56.32;101628.53;4983339;27;98196;-65
2023/11/22 03:35:08;;;;;;;;;;;;;;;9.31;56.29;101634.97;4965742;27;98105;-61
2023/11/22 03:37:34;;;;;;;;;;;;;;;9.31;56.05;101644.88;4987047;27;98556;-62
2023/11/22 03:40:00;;;;;;;;;;;;;;;9.30;56.58;101646.75;4973224;27;102206;-66
2023/11/22 03:42:26;;;;;;;;;;;;;;;9.29;56.05;101655.88;4973103;27;98435;-66
2023/11/22 03:44:55;;;;;;;;;;;;;;;9.28;56.28;101659.63;4970133;27;98189;-66
2023/11/22 03:47:22;;;;;;;;;;;;;;;9.28;56.68;101665.00;4989643;27;98740;-66
2023/11/22 03:49:48;;;;;;;;;;;;;;;9.27;56.55;101674.09;4977515;27;98990;-62
2023/11/22 03:52:14;;;;;;;;;;;;;;;9.27;55.88;101670.59;4968853;27;99184;-66
2023/11/22 03:54:40;;;;;;;;;;;;;;;9.27;56.61;101665.22;4965607;27;100558;-62
2023/11/22 03:57:07;;;;;;;;;;;;;;;9.26;56.70;101668.97;4974043;27;98097;-62
2023/11/22 03:59:34;;;;;;;;;;;;;;;9.24;56.39;101677.28;4968686;27;98436;-62
2023/11/22 04:02:01;;;;;;;;;;;;;;;9.24;56.46;101682.66;4972720;27;98966;-62
2023/11/22 04:04:27;;;;;;;;;;;;;;;9.24;56.43;101695.31;4976550;27;98052;-61
2023/11/22 04:06:54;;;;;;;;;;;;;;;9.23;55.91;101704.41;4972786;27;98005;-62
2023/11/22 04:09:20;;;;;;;;;;;;;;;9.22;56.19;101717.03;4991738;27;98300;-61
2023/11/22 04:11:47;;;;;;;;;;;;;;;9.22;56.42;101726.97;4984613;27;97891;-65
2023/11/22 04:14:13;;;;;;;;;;;;;;;9.21;56.86;101731.53;4994429;27;98454;-67
2023/11/22 04:16:39;;;;;;;;;;;;;;;9.21;56.36;101736.94;4970024;27;99839;-67
2023/11/22 04:19:05;;;;;;;;;;;;;;;9.20;56.23;101731.78;4972083;27;98160;-66
2023/11/22 04:21:31;;;;;;;;;;;;;;;9.17;56.31;101743.00;4966619;27;98833;-61
2023/11/22 04:23:57;;;;;;;;;;;;;;;9.18;56.46;101747.31;4972113;27;97956;-62
2023/11/22 04:26:24;;;;;;;;;;;;;;;9.17;56.55;101756.44;4982749;27;98098;-66
2023/11/22 04:28:50;;;;;;;;;;;;;;;9.16;56.65;101757.50;4980532;27;98324;-66
2023/11/22 04:31:17;;;;;;;;;;;;;;;9.15;56.54;101756.66;4983909;27;97946;-61
2023/11/22 04:33:43;;;;;;;;;;;;;;;9.14;56.08;101752.31;4985208;27;97914;-61
2023/11/22 04:36:09;;;;;;;;;;;;;;;9.14;56.01;101755.00;4975429;27;99012;-62
2023/11/22 04:38:35;;;;;;;;;;;;;;;9.14;56.00;101760.41;4966692;27;113856;-62
2023/11/22 04:41:02;;;;;;;;;;;;;;;9.14;56.45;101755.00;4961971;27;98115;-61
2023/11/22 04:43:28;;;;;;;;;;;;;;;9.14;55.71;101749.63;4971971;27;98128;-66
2023/11/22 04:45:54;;;;;;;;;;;;;;;9.14;55.91;101746.94;4976102;27;100345;-62
2023/11/22 04:48:20;;;;;;;;;;;;;;;9.13;56.05;101752.56;4964827;27;98542;-62
2023/11/22 04:50:50;;;;;;;;;;;;;;;9.13;56.16;101766.00;4964595;27;98127;-62
2023/11/22 04:53:17;;;;;;;;;;;;;;;9.14;56.41;101770.34;4978761;27;98734;-62
2023/11/22 04:55:43;;;;;;;;;;;;;;;9.13;55.99;101787.53;4983846;27;97968;-66
2023/11/22 04:58:11;;;;;;;;;;;;;;;9.12;55.97;101784.03;4969719;27;98295;-62
2023/11/22 05:00:37;;;;;;;;;;;;;;;9.12;56.39;101777.81;4969682;27;98126;-62
2023/11/22 05:03:03;;;;;;;;;;;;;;;9.12;56.19;101789.41;4968909;27;99574;-66
2023/11/22 05:05:29;;;;;;;;;;;;;;;9.12;55.75;101799.31;4979012;27;98240;-66
2023/11/22 05:07:55;;;;;;;;;;;;;;;9.11;56.20;101793.13;4982311;27;101083;-66
2023/11/22 05:10:21;;;;;;;;;;;;;;;9.09;55.85;101790.66;4960774;27;98490;-66
2023/11/22 05:12:47;;;;;;;;;;;;;;;9.08;56.67;101802.47;4998803;27;98050;-66
2023/11/22 05:15:14;;;;;;;;;;;;;;;9.07;56.81;101813.44;4979336;27;98447;-62
2023/11/22 05:17:40;;;;;;;;;;;;;;;9.06;55.94;101815.31;4978438;27;98309;-66
2023/11/22 05:20:09;;;;;;;;;;;;;;;9.04;56.40;101814.75;4983663;27;98146;-62
2023/11/22 05:22:35;;;;;;;;;;;;;;;9.04;56.12;101819.31;4964603;27;98094;-66
2023/11/22 05:25:01;;;;;;;;;;;;;;;9.04;56.09;101824.69;4971139;27;100918;-61
2023/11/22 05:27:28;;;;;;;;;;;;;;;9.04;56.20;101820.13;4970572;27;116305;-62
2023/11/22 05:29:54;;;;;;;;;;;;;;;9.04;56.79;101812.06;4963133;27;98505;-66
2023/11/22 05:32:21;;;;;;;;;;;;;;;9.04;56.24;101814.75;4966089;27;97902;-62
2023/11/22 05:34:47;;;;;;;;;;;;;;;9.06;56.32;101815.31;4972712;27;99650;-66
2023/11/22 05:37:13;;;;;;;;;;;;;;;9.06;56.44;101820.69;4976209;27;98097;-62
2023/11/22 05:39:39;;;;;;;;;;;;;;;9.07;56.59;101816.97;4968903;27;111191;-66
2023/11/22 05:42:06;;;;;;;;;;;;;;;9.09;56.81;101817.56;4973588;27;99655;-61
2023/11/22 05:44:32;;;;;;;;;;;;;;;9.10;56.08;101807.63;4998591;27;97963;-66
2023/11/22 05:46:58;;;;;;;;;;;;;;;9.11;55.83;101811.94;5014637;27;98131;-62
2023/11/22 05:49:24;;;;;;;;;;;;;;;9.11;55.95;101811.94;4979719;27;121388;-62
2023/11/22 05:51:50;;;;;;;;;;;;;;;9.13;56.43;101819.81;4959300;27;124826;-61
2023/11/22 05:54:16;;;;;;;;;;;;;;;9.18;56.34;101820.78;4971457;27;98488;-66
2023/11/22 05:56:43;;;;;;;;;;;;;;;9.25;56.38;101823.41;4972868;27;125088;-66
2023/11/22 05:59:09;;;;;;;;;;;;;;;9.31;56.04;101815.25;4966225;27;98180;-62
2023/11/22 06:01:35;;;;;;;;;;;;;;;9.40;56.26;101825.69;4997088;27;98461;-62
2023/11/22 06:04:01;;;;;;;;;;;;;;;9.44;56.63;101832.28;4969232;27;98813;-66
2023/11/22 06:06:27;;;;;;;;;;;;;;;9.48;56.26;101847.75;4961572;27;127269;-62
2023/11/22 06:08:53;;;;;;;;;;;;;;;9.53;55.99;101849.75;4965654;27;98163;-66
2023/11/22 06:11:19;;;;;;;;;;;;;;;9.56;56.55;101849.31;4969434;27;107036;-66
2023/11/22 06:13:47;;;;;;;;;;;;;;;9.60;56.05;101839.72;4987125;27;98800;-62
2023/11/22 06:16:13;;;;;;;;;;;;;;;9.64;56.00;101845.47;4968838;27;99335;-66
2023/11/22 06:18:40;;;;;;;;;;;;;;;9.67;56.65;101853.91;4966153;27;98558;-66
2023/11/22 06:21:09;;;;;;;;;;;;;;;9.69;56.33;101867.97;4977495;27;98296;-66
2023/11/22 06:23:36;;;;;;;;;;;;;;;9.72;56.39;101874.78;4969328;27;100160;-62
2023/11/22 06:26:02;;;;;;;;;;;;;;;9.74;55.98;101875.34;4967545;27;98056;-62
2023/11/22 06:28:29;;;;;;;;;;;;;;;9.76;56.31;101866.00;4967089;27;98692;-62
2023/11/22 06:30:55;;;;;;;;;;;;;;;9.78;56.35;101871.97;4967323;27;98256;-62
2023/11/22 06:33:21;;;;;;;;;;;;;;;9.80;56.32;101877.16;4983488;27;100344;-66
2023/11/22 06:35:47;;;;;;;;;;;;;;;9.81;55.98;101874.22;4982148;27;104251;-66
2023/11/22 06:38:13;;;;;;;;;;;;;;;9.81;56.62;101884.16;4971664;27;99242;-66
2023/11/22 06:40:39;;;;;;;;;;;;;;;9.84;56.46;101910.66;4987907;27;99608;-61
2023/11/22 06:43:08;;;;;;;;;;;;;;;9.85;56.60;101925.75;4990065;27;130828;-66
2023/11/22 06:45:34;;;;;;;;;;;;;;;9.86;56.31;101931.97;4969383;27;99787;-62
2023/11/22 06:48:00;;;;;;;;;;;;;;;9.86;56.01;101932.78;4984593;27;98075;-62
2023/11/22 06:50:26;;;;;;;;;;;;;;;9.88;56.01;101930.69;4998973;27;98638;-62
2023/11/22 06:52:52;;;;;;;;;;;;;;;9.87;56.25;101929.06;4984153;27;98210;-66
2023/11/22 06:55:18;;;;;;;;;;;;;;;9.87;56.34;101931.75;4971680;27;98155;-66
2023/11/22 06:57:44;;;;;;;;;;;;;;;9.90;56.00;101925.06;4965021;27;117189;-62
2023/11/22 07:00:12;;;;;;;;;;;;;;;9.91;55.98;101918.66;4984516;27;124409;-66
2023/11/22 07:02:38;;;;;;;;;;;;;;;9.92;55.97;101910.34;4966865;27;98340;-62
2023/11/22 07:05:08;;;;;;;;;;;;;;;9.94;55.93;101912.78;4970520;27;98014;-67
2023/11/22 07:07:35;;;;;;;;;;;;;;;9.97;56.48;101909.66;4988771;27;98455;-66
2023/11/22 07:10:01;;;;;;;;;;;;;;;9.99;56.46;101911.06;4995725;27;106028;-62
2023/11/22 07:12:26;;;;;;;;;;;;;;;10.01;56.35;101908.97;4968870;27;122804;-62
2023/11/22 07:14:52;;;;;;;;;;;;;;;10.01;56.37;101900.06;4949012;27;127835;-66
2023/11/22 07:17:18;;;;;;;;;;;;;;;10.05;56.56;101903.94;4957718;27;99463;-66
2023/11/22 07:19:48;;;;;;;;;;;;;;;10.04;56.42;101905.00;4953998;27;114126;-66
2023/11/22 07:22:19;;;;;;;;;;;;;;;10.06;56.34;101919.88;4948800;27;98360;-66
2023/11/22 07:24:45;;;;;;;;;;;;;;;10.08;56.14;101931.25;4948166;27;100391;-62
2023/11/22 07:27:12;;;;;;;;;;;;;;;10.13;56.08;101937.81;4960348;27;98919;-66
2023/11/22 07:29:41;;;;;;;;;;;;;;;10.14;56.50;101944.84;4948238;27;99523;-62
2023/11/22 07:32:08;;;;;;;;;;;;;;;10.14;56.15;101943.00;4964326;27;99462;-62
2023/11/22 07:34:35;;;;;;;;;;;;;;;10.16;56.12;101940.88;4950055;27;98171;-61
2023/11/22 07:37:01;;;;;;;;;;;;;;;10.19;56.03;101951.22;4967575;27;98247;-63
2023/11/22 07:39:27;;;;;;;;;;;;;;;10.23;56.02;101954.28;4949539;27;119053;-66
2023/11/22 07:41:56;;;;;;;;;;;;;;;10.23;56.20;101952.41;4964508;27;124969;-62
2023/11/22 07:44:23;;;;;;;;;;;;;;;10.27;55.87;101968.97;4948711;27;101568;-62
2023/11/22 07:46:51;;;;;;;;;;;;;;;10.29;55.97;101978.44;4962763;27;99180;-61
2023/11/22 07:49:18;;;;;;;;;;;;;;;10.32;55.66;101978.00;4941553;27;98339;-66
2023/11/22 07:51:47;;;;;;;;;;;;;;;10.34;56.20;101985.88;4941515;27;98084;-66
2023/11/22 07:54:15;;;;;;;;;;;;;;;10.39;56.13;101994.09;4947744;27;99048;-62
2023/11/22 07:56:43;;;;;;;;;;;;;;;10.41;55.79;101993.84;4974488;27;98281;-66
2023/11/22 07:59:12;;;;;;;;;;;;;;;10.44;55.89;102002.28;4956813;27;99525;-66
2023/11/22 08:01:39;;;;;;;;;;;;;;;10.48;55.68;102005.34;4943099;27;98267;-66
2023/11/22 08:04:05;;;;;;;;;;;;;;;10.51;56.00;102018.38;4947112;27;98245;-61
2023/11/22 08:06:32;;;;;;;;;;;;;;;10.53;55.92;102021.66;4944443;27;106437;-62
2023/11/22 08:09:01;;;;;;;;;;;;;;;10.53;55.94;102014.41;4949844;27;99887;-66
2023/11/22 08:11:28;;;;;;;;;;;;;;;10.57;55.82;102015.59;4963181;27;98908;-66
2023/11/22 08:13:57;;;;;;;;;;;;;;;10.65;55.80;102019.00;4961137;27;99879;-67
2023/11/22 08:16:23;;;;;;;;;;;;;;;10.68;55.65;102018.56;4977971;27;98890;-66
2023/11/22 08:18:49;;;;;;;;;;;;;;;10.69;55.83;102018.34;4982305;27;127383;-66
2023/11/22 08:21:15;;;;;;;;;;;;;;;10.75;55.82;102014.69;4996208;27;97851;-61
2023/11/22 08:23:41;;;;;;;;;;;;;;;10.81;55.75;102012.97;4963421;27;111355;-66
2023/11/22 08:26:08;;;;;;;;;;;;;;;10.84;55.76;102017.06;4979186;27;97925;-66
2023/11/22 08:28:34;;;;;;;;;;;;;;;10.90;55.54;102022.38;4954211;27;98116;-65
2023/11/22 08:31:04;;;;;;;;;;;;;;;10.99;55.50;102028.25;4970281;27;105400;-61
2023/11/22 08:33:30;;;;;;;;;;;;;;;11.05;55.43;102030.03;4957105;27;99757;-66
2023/11/22 08:35:59;;;;;;;;;;;;;;;11.11;55.53;102026.38;4985152;27;121665;-66
2023/11/22 08:38:26;;;;;;;;;;;;;;;11.19;55.50;102015.22;4980550;27;100292;-66
2023/11/22 08:40:52;;;;;;;;;;;;;;;11.25;55.47;102014.31;4976970;27;98419;-66
2023/11/22 08:43:22;;;;;;;;;;;;;;;11.27;55.45;102006.78;4965082;27;99026;-66
2023/11/22 08:45:49;;;;;;;;;;;;;;;11.37;55.33;102011.63;4976357;27;98591;-66
2023/11/22 08:48:15;;;;;;;;;;;;;;;11.44;55.46;102019.59;4976126;27;104740;-62
2023/11/22 08:50:41;;;;;;;;;;;;;;;11.44;55.53;102027.69;4981448;27;98541;-66
2023/11/22 08:53:08;;;;;;;;;;;;;;;11.46;55.34;102021.00;4979209;27;113470;-66
2023/11/22 08:55:34;;;;;;;;;;;;;;;11.57;55.44;102021.22;4984239;27;98369;-65
2023/11/22 08:58:00;;;;;;;;;;;;;;;11.65;55.28;102026.25;4968374;27;98148;-66
2023/11/22 09:00:28;;;;;;;;;;;;;;;11.65;55.44;102018.97;4957400;27;127275;-67
2023/11/22 09:02:57;;;;;;;;;;;;;;;11.66;55.25;102020.63;4967955;27;98220;-61
2023/11/22 09:05:23;;;;;;;;;;;;;;;11.72;55.47;102016.97;4980709;27;99449;-61
2023/11/22 09:07:50;;;;;;;;;;;;;;;11.81;55.35;102017.44;4965811;27;99917;-61
2023/11/22 09:10:18;;;;;;;;;;;;;;;11.95;55.32;102018.84;4993120;27;98932;-61
2023/11/22 09:12:45;;;;;;;;;;;;;;;12.06;55.04;102022.56;4966146;27;98257;-61
2023/11/22 09:15:12;;;;;;;;;;;;;;;12.07;55.07;102026.09;4967619;27;98937;-65
2023/11/22 09:17:42;;;;;;;;;;;;;;;12.14;55.11;102035.69;4968398;27;98372;-66
2023/11/22 09:20:12;;;;;;;;;;;;;;;12.22;54.87;102029.94;4981203;27;98936;-62
2023/11/22 09:22:45;;;;;;;;;;;;;;;12.22;55.21;102026.38;4985789;27;99212;-62
2023/11/22 09:25:12;;;;;;;;;;;;;;;12.23;55.13;102018.06;4981607;27;98136;-66
2023/11/22 09:27:39;;;;;;;;;;;;;;;12.34;55.09;102012.81;4978692;27;98623;-62
2023/11/22 09:30:06;;;;;;;;;;;;;;;12.47;54.79;102010.66;4971159;27;99992;-61
2023/11/22 09:32:32;;;;;;;;;;;;;;;12.59;54.83;102007.09;4994991;27;98216;-62
2023/11/22 09:34:58;;;;;;;;;;;;;;;12.75;54.50;101995.44;4969278;27;99313;-65
2023/11/22 09:37:25;;;;;;;;;;;;;;;12.97;54.50;101993.66;4970608;27;98356;-62
2023/11/22 09:39:51;;;;;;;;;;;;;;;13.11;54.57;101999.56;4982707;27;98262;-66
2023/11/22 09:42:16;;;;;;;;;;;;;;;13.13;54.40;102002.84;4968016;27;120584;-62
2023/11/22 09:44:43;;;;;;;;;;;;;;;13.30;54.48;102010.16;4979578;27;107574;-61
2023/11/22 09:47:09;;;;;;;;;;;;;;;13.35;54.39;102010.22;4983506;27;98197;-61
2023/11/22 09:49:35;;;;;;;;;;;;;;;13.27;54.59;102020.41;4962435;27;101839;-64
2023/11/22 09:52:04;;;;;;;;;;;;;;;13.25;54.61;102014.44;4983751;27;127367;-61
2023/11/22 09:54:33;;;;;;;;;;;;;;;13.23;54.87;102011.13;4984182;27;97889;-67
2023/11/22 09:57:01;;;;;;;;;;;;;;;13.25;54.86;102003.59;4964722;27;98250;-65
2023/11/22 09:59:27;;;;;;;;;;;;;;;13.24;54.91;102015.50;4977317;27;98127;-61
2023/11/22 10:01:54;;;;;;;;;;;;;;;13.22;54.72;102028.44;4961272;27;127799;-61
2023/11/22 10:04:20;;;;;;;;;;;;;;;13.17;55.16;102033.78;4984915;27;98269;-66
2023/11/22 10:06:46;;;;;;;;;;;;;;;13.08;55.30;102043.34;4964601;27;99400;-65
2023/11/22 10:09:14;;;;;;;;;;;;;;;13.02;55.40;102044.34;4961014;27;98174;-65
2023/11/22 10:11:43;;;;;;;;;;;;;;;12.99;55.45;102047.53;4962900;27;99147;-66
2023/11/22 10:14:10;;;;;;;;;;;;;;;12.99;55.05;102045.66;4964405;27;98295;-61
2023/11/22 10:16:36;;;;;;;;;;;;;;;13.03;54.98;102032.44;4974833;27;99020;-65
2023/11/22 10:19:01;;;;;;;;;;;;;;;12.99;55.21;102026.69;4978657;27;98628;-65
2023/11/22 10:21:31;;;;;;;;;;;;;;;12.95;55.03;102016.63;4983264;27;127689;-65
2023/11/22 10:24:02;;;;;;;;;;;;;;;13.00;55.06;102006.69;4993781;27;98150;-65
2023/11/22 10:26:28;;;;;;;;;;;;;;;13.09;55.03;101995.47;4960350;27;98128;-65
2023/11/22 10:28:54;;;;;;;;;;;;;;;13.20;54.86;101989.97;4967008;27;98411;-61
2023/11/22 10:31:24;;;;;;;;;;;;;;;13.31;55.01;101992.84;4963794;27;98964;-66
2023/11/22 10:33:50;;;;;;;;;;;;;;;13.43;54.64;101988.94;4963596;27;98811;-62
2023/11/22 10:36:16;;;;;;;;;;;;;;;13.54;54.50;101991.81;4970065;27;98968;-65
2023/11/22 10:38:46;;;;;;;;;;;;;;;13.62;54.86;101992.19;4966189;27;98357;-61
2023/11/22 10:41:13;;;;;;;;;;;;;;;13.60;54.92;101994.34;4978330;27;99283;-61
2023/11/22 10:43:39;;;;;;;;;;;;;;;13.65;54.95;101999.00;4982275;27;98128;-65
2023/11/22 10:46:06;;;;;;;;;;;;;;;13.62;54.80;101994.09;4966661;27;98191;-62
2023/11/22 10:48:35;;;;;;;;;;;;;;;13.53;55.36;101998.31;4961072;27;99525;-65
2023/11/22 10:51:05;;;;;;;;;;;;;;;13.56;54.96;102008.63;4975236;27;100253;-61
2023/11/22 10:53:35;;;;;;;;;;;;;;;13.59;55.11;102024.38;4970077;27;98191;-65
2023/11/22 10:56:15;;;;;;;;;;;;;;;13.63;55.07;102026.34;4975797;27;120299;-65
2023/11/22 10:58:51;;;;;;;;;;;;;;;13.71;54.98;102033.22;4962874;27;99853;-65
2023/11/22 11:01:19;;;;;;;;;;;;;;;13.73;54.74;102040.03;4964911;27;97989;-61
2023/11/22 11:03:55;;;;;;;;;;;;;;;13.74;55.11;102057.09;4976632;27;98027;-65
2023/11/22 11:06:31;;;;;;;;;;;;;;;13.73;54.79;102056.28;4961156;27;108718;-63
2023/11/22 11:08:58;;;;;;;;;;;;;;;13.73;54.79;102067.13;4961907;27;98076;-61
2023/11/22 11:11:24;;;;;;;;;;;;;;;13.74;55.11;102068.75;4979211;27;98373;-65
2023/11/22 11:13:50;;;;;;;;;;;;;;;13.75;55.07;102072.28;4976552;27;114434;-65
2023/11/22 11:16:16;;;;;;;;;;;;;;;13.83;54.81;102063.72;4974589;27;115504;-61
2023/11/22 11:18:42;;;;;;;;;;;;;;;13.88;55.17;102069.25;4960723;27;100216;-61
2023/11/22 11:21:11;;;;;;;;;;;;;;;13.88;55.03;102071.13;4952798;27;102828;-61
2023/11/22 11:23:38;;;;;;;;;;;;;;;13.85;55.14;102071.63;4964058;27;98340;-61
2023/11/22 11:26:36;;;;;;;;;;;;;;;13.88;54.92;102074.66;4965890;27;98509;-61
2023/11/22 11:29:03;;;;;;;;;;;;;;;13.94;54.62;102065.50;4986878;27;98280;-61
2023/11/22 11:31:36;;;;;;;;;;;;;;;14.05;54.91;102061.03;4961334;27;99172;-62
2023/11/22 11:34:05;;;;;;;;;;;;;;;14.14;54.55;102054.09;4989978;27;98183;-62
2023/11/22 11:36:33;;;;;;;;;;;;;;;14.27;54.54;102050.19;4972280;27;99980;-65
2023/11/22 11:39:01;;;;;;;;;;;;;;;14.29;54.72;102041.81;4986833;27;99884;-65
2023/11/22 11:41:32;;;;;;;;;;;;;;;14.22;54.94;102045.50;4981492;27;98313;-65
2023/11/22 11:43:58;;;;;;;;;;;;;;;14.14;54.94;102047.84;4971639;27;97980;-65
2023/11/22 11:46:25;;;;;;;;;;;;;;;14.07;54.80;102050.78;4969999;27;98928;-62
2023/11/22 11:48:52;;;;;;;;;;;;;;;14.05;55.29;102050.19;4982305;27;98209;-62
2023/11/22 11:51:19;;;;;;;;;;;;;;;14.01;55.17;102049.06;4962459;27;98372;-66
2023/11/22 11:53:45;;;;;;;;;;;;;;;14.02;54.86;102055.31;4982283;27;98176;-66
2023/11/22 11:56:11;;;;;;;;;;;;;;;14.06;54.85;102043.69;4996199;27;98373;-66
2023/11/22 11:58:38;;;;;;;;;;;;;;;14.19;54.58;102040.63;4964525;27;121947;-66
2023/11/22 12:01:07;;;;;;;;;;;;;;;14.29;54.76;102042.63;4973465;27;115716;-62
2023/11/22 12:03:36;;;;;;;;;;;;;;;14.27;54.84;102036.63;4996111;27;98894;-61
2023/11/22 12:06:02;;;;;;;;;;;;;;;14.32;54.79;102031.25;4998516;27;98172;-66
2023/11/22 12:08:30;;;;;;;;;;;;;;;14.36;54.84;102026.16;4966858;27;99115;-66
2023/11/22 12:10:58;;;;;;;;;;;;;;;14.38;54.85;102023.97;4984341;27;99947;-62
2023/11/22 12:13:24;;;;;;;;;;;;;;;14.36;54.86;102020.72;4962164;27;98378;-62
2023/11/22 12:15:53;;;;;;;;;;;;;;;14.29;54.72;102018.19;4979279;27;97897;-66
2023/11/22 12:18:19;;;;;;;;;;;;;;;14.21;54.88;102015.94;4977319;27;98283;-66
2023/11/22 12:20:58;;;;;;;;;;;;;;;14.15;55.08;102004.22;4969339;27;116833;-62
2023/11/22 12:23:25;;;;;;;;;;;;;;;14.12;54.97;102003.91;4983304;27;98588;-66
2023/11/22 12:25:58;;;;;;;;;;;;;;;14.07;55.06;102011.97;4987408;27;98381;-66
2023/11/22 12:28:27;;;;;;;;;;;;;;;13.98;55.04;102004.28;4975171;27;98541;-66
2023/11/22 12:30:53;;;;;;;;;;;;;;;13.89;55.45;101983.31;4973061;27;99556;-65
2023/11/22 12:33:19;;;;;;;;;;;;;;;13.81;55.16;101984.56;4979037;27;98398;-62
2023/11/22 12:35:46;;;;;;;;;;;;;;;13.72;55.50;101976.06;4977690;27;98642;-61
2023/11/22 12:38:12;;;;;;;;;;;;;;;13.69;55.53;101970.34;4976084;27;98134;-61
2023/11/22 12:40:43;;;;;;;;;;;;;;;13.66;55.58;101958.09;4975684;27;124604;-62
2023/11/22 12:43:09;;;;;;;;;;;;;;;13.59;55.13;101941.22;4980601;27;98034;-62